createdAt,value
2023-01-04T00:01:22.449Z,0.27
2023-01-04T00:03:49.822Z,0.25
2023-01-04T00:06:17.642Z,0.13
2023-01-04T00:08:44.665Z,0.06
2023-01-04T00:11:18.116Z,-0.12
2023-01-04T00:13:46.247Z,-0.25
2023-01-04T00:16:16.917Z,-0.31
2023-01-04T00:18:44.751Z,-0.14
2023-01-04T00:21:21.327Z,-0.17
2023-01-04T00:23:51.627Z,-0.23
2023-01-04T00:26:22.468Z,-0.24
2023-01-04T00:28:54.749Z,0.08
2023-01-04T00:31:24.179Z,0.02
2023-01-04T00:33:54.905Z,-0.02
2023-01-04T00:36:21.994Z,0.07
2023-01-04T00:39:07.104Z,0.12
2023-01-04T00:44:30.053Z,-0.15
2023-01-04T00:46:58.440Z,-0.36
2023-01-04T00:49:25.839Z,-0.37
2023-01-04T00:51:52.854Z,-0.36
2023-01-04T00:54:20.539Z,-0.44
2023-01-04T00:56:48.678Z,-0.12
2023-01-04T00:59:19.065Z,-0.20
2023-01-04T01:01:47.054Z,-0.26
2023-01-04T01:04:17.772Z,0.13
2023-01-04T01:06:45.163Z,0.17
2023-01-04T01:09:12.368Z,0.05
2023-01-04T01:11:40.191Z,0.31
2023-01-04T01:14:09.271Z,0.31
2023-01-04T01:16:54.346Z,0.34
2023-01-04T01:19:24.002Z,0.45
2023-01-04T01:21:50.912Z,0.51
2023-01-04T01:24:19.539Z,0.38
2023-01-04T01:26:47.117Z,0.12
2023-01-04T01:29:14.445Z,-0.11
2023-01-04T01:31:42.148Z,0.06
2023-01-04T01:34:09.721Z,-0.11
2023-01-04T01:36:37.184Z,-0.22
2023-01-04T01:39:05.828Z,-0.45
2023-01-04T01:41:34.901Z,-0.08
2023-01-04T01:44:03.370Z,-0.37
2023-01-04T01:46:42.987Z,-0.24
2023-01-04T01:49:15.156Z,-0.55
2023-01-04T01:51:42.783Z,-0.68
2023-01-04T01:54:21.394Z,-0.74
2023-01-04T01:56:51.348Z,-0.75
2023-01-04T01:59:19.076Z,-0.61
2023-01-04T02:01:46.302Z,-0.70
2023-01-04T02:04:15.588Z,-0.46
2023-01-04T02:06:48.804Z,-0.55
2023-01-04T02:09:17.208Z,-0.61
2023-01-04T02:11:44.238Z,-0.65
2023-01-04T02:14:27.461Z,-0.35
2023-01-04T02:17:15.811Z,-0.63
2023-01-04T02:20:19.424Z,-0.67
2023-01-04T02:23:10.386Z,-0.65
2023-01-04T02:26:18.672Z,-0.90
2023-01-04T02:29:09.359Z,-0.95
2023-01-04T02:31:47.888Z,-0.90
2023-01-04T02:34:36.440Z,-0.78
2023-01-04T02:37:35.595Z,-0.73
2023-01-04T02:40:14.326Z,-0.88
2023-01-04T02:43:30.916Z,-0.84
2023-01-04T02:46:44.754Z,-0.96
2023-01-04T02:49:30.196Z,-0.87
2023-01-04T02:51:57.140Z,-0.73
2023-01-04T02:54:30.053Z,-0.71
2023-01-04T02:57:41.101Z,-0.69
2023-01-04T03:01:05.252Z,-0.69
2023-01-04T03:04:06.959Z,-0.63
2023-01-04T03:06:58.469Z,-0.59
2023-01-04T03:09:32.600Z,-0.66
2023-01-04T03:12:27.499Z,-0.68
2023-01-04T03:15:06.231Z,-0.51
2023-01-04T03:17:57.984Z,-0.62
2023-01-04T03:20:29.549Z,-0.33
2023-01-04T03:23:24.665Z,-0.38
2023-01-04T03:26:22.684Z,0.14
2023-01-04T03:29:08.981Z,-0.03
2023-01-04T03:32:09.710Z,0.14
2023-01-04T03:34:55.460Z,0.16
2023-01-04T03:37:23.616Z,0.38
2023-01-04T03:40:34.143Z,0.52
2023-01-04T03:43:39.709Z,0.48
2023-01-04T03:46:36.776Z,1.06
2023-01-04T03:49:18.172Z,1.47
2023-01-04T03:51:46.501Z,0.88
2023-01-04T03:54:38.138Z,1.68
2023-01-04T03:57:07.058Z,1.55
2023-01-04T03:59:41.784Z,1.21
2023-01-04T04:02:14.040Z,1.54
2023-01-04T04:05:00.508Z,1.61
2023-01-04T04:07:46.596Z,1.65
2023-01-04T04:10:13.596Z,1.08
2023-01-04T04:12:40.558Z,1.38
2023-01-04T04:15:08.194Z,1.51
2023-01-04T04:17:35.124Z,1.54
2023-01-04T04:20:02.391Z,1.61
2023-01-04T04:22:29.267Z,1.81
2023-01-04T04:24:56.256Z,1.76
2023-01-04T04:27:23.193Z,2.18
2023-01-04T04:29:50.187Z,2.08
2023-01-04T04:32:17.241Z,2.18
2023-01-04T04:34:44.199Z,2.18
2023-01-04T04:37:11.141Z,1.89
2023-01-04T04:39:38.156Z,1.83
2023-01-04T04:42:05.100Z,2.00
2023-01-04T04:44:35.129Z,1.98
2023-01-04T04:47:02.400Z,1.75
2023-01-04T04:49:30.157Z,1.79
2023-01-04T04:51:57.196Z,1.99
2023-01-04T04:54:24.153Z,1.82
2023-01-04T04:56:51.241Z,1.83
2023-01-04T04:59:18.273Z,1.88
2023-01-04T05:01:45.476Z,1.73
2023-01-04T05:04:17.091Z,1.85
2023-01-04T05:06:46.504Z,1.66
2023-01-04T05:09:14.366Z,1.81
2023-01-04T05:12:00.591Z,1.95
2023-01-04T05:14:28.045Z,2.19
2023-01-04T05:16:55.116Z,2.46
2023-01-04T05:19:22.118Z,2.33
2023-01-04T05:21:49.342Z,2.50
2023-01-04T05:24:16.366Z,2.52
2023-01-04T05:26:43.406Z,2.55
2023-01-04T05:29:30.332Z,2.62
2023-01-04T05:31:57.361Z,2.64
2023-01-04T05:34:24.352Z,2.69
2023-01-04T05:36:51.243Z,2.70
2023-01-04T05:39:18.274Z,2.86
2023-01-04T05:42:03.799Z,2.90
2023-01-04T05:44:30.731Z,2.96
2023-01-04T05:46:57.717Z,2.99
2023-01-04T05:49:24.617Z,2.94
2023-01-04T05:51:51.583Z,3.12
2023-01-04T05:54:21.460Z,3.20
2023-01-04T05:56:48.784Z,3.21
2023-01-04T05:59:16.143Z,3.24
2023-01-04T06:01:43.337Z,3.29
2023-01-04T06:04:10.409Z,3.35
2023-01-04T06:06:37.443Z,3.34
2023-01-04T06:09:04.390Z,3.45
2023-01-04T06:11:31.335Z,3.49
2023-01-04T06:13:58.568Z,3.56
2023-01-04T06:16:25.678Z,3.61
2023-01-04T06:18:52.627Z,3.60
2023-01-04T06:21:19.623Z,3.80
2023-01-04T06:23:46.580Z,3.88
2023-01-04T06:26:13.749Z,3.78
2023-01-04T06:28:41.332Z,3.85
2023-01-04T06:31:10.282Z,3.94
2023-01-04T06:33:38.316Z,3.93
2023-01-04T06:36:06.778Z,3.91
2023-01-04T06:38:34.515Z,4.00
2023-01-04T06:41:01.463Z,4.00
2023-01-04T06:43:28.569Z,4.06
2023-01-04T06:45:55.617Z,4.16
2023-01-04T06:48:22.609Z,4.13
2023-01-04T06:50:49.520Z,4.12
2023-01-04T06:53:16.448Z,4.15
2023-01-04T06:55:45.317Z,4.15
2023-01-04T06:58:12.305Z,4.23
2023-01-04T07:00:39.301Z,4.33
2023-01-04T07:03:14.784Z,4.33
2023-01-04T07:05:44.177Z,4.36
2023-01-04T07:08:13.117Z,4.35
2023-01-04T07:10:40.766Z,4.43
2023-01-04T07:13:08.465Z,4.59
2023-01-04T07:15:38.455Z,4.78
2023-01-04T07:18:11.456Z,4.85
2023-01-04T07:20:39.256Z,4.88
2023-01-04T07:23:07.566Z,4.96
2023-01-04T07:25:34.643Z,5.04
2023-01-04T07:28:02.070Z,5.00
2023-01-04T07:30:29.116Z,4.89
2023-01-04T07:32:56.539Z,5.01
2023-01-04T07:35:24.110Z,5.00
2023-01-04T07:37:57.809Z,5.16
2023-01-04T07:40:26.860Z,5.31
2023-01-04T07:42:58.985Z,5.33
2023-01-04T07:45:26.740Z,5.38
2023-01-04T07:47:53.798Z,5.38
2023-01-04T07:50:20.780Z,5.42
2023-01-04T07:52:47.791Z,5.47
2023-01-04T07:55:14.865Z,5.38
2023-01-04T07:57:41.876Z,5.28
2023-01-04T08:00:11.533Z,5.34
2023-01-04T08:02:41.377Z,5.31
2023-01-04T08:05:08.756Z,5.14
2023-01-04T08:07:35.674Z,5.20
2023-01-04T08:10:02.644Z,5.22
2023-01-04T08:12:29.588Z,5.11
2023-01-04T08:14:56.654Z,5.01
2023-01-04T08:17:23.608Z,4.90
2023-01-04T08:19:50.622Z,4.94
2023-01-04T08:22:17.559Z,5.07
2023-01-04T08:24:44.475Z,5.07
2023-01-04T08:27:11.415Z,4.95
2023-01-04T08:29:38.755Z,5.02
2023-01-04T08:32:06.278Z,5.06
2023-01-04T08:34:33.317Z,5.02
2023-01-04T08:37:00.334Z,4.89
2023-01-04T08:39:29.546Z,4.94
2023-01-04T08:41:58.752Z,5.00
2023-01-04T08:44:28.116Z,5.13
2023-01-04T08:46:55.415Z,5.20
2023-01-04T08:49:23.700Z,5.06
2023-01-04T08:51:50.702Z,5.07
2023-01-04T08:54:18.316Z,5.18
2023-01-04T08:56:45.333Z,5.19
2023-01-04T08:59:13.708Z,5.31
2023-01-04T09:01:41.924Z,5.35
2023-01-04T09:04:09.958Z,5.50
2023-01-04T09:06:38.332Z,5.54
2023-01-04T09:09:06.102Z,5.59
2023-01-04T09:11:33.085Z,5.61
2023-01-04T09:14:09.281Z,5.63
2023-01-04T09:16:38.337Z,5.74
2023-01-04T09:19:06.699Z,5.74
2023-01-04T09:21:34.059Z,5.72
2023-01-04T09:24:01.175Z,5.80
2023-01-04T09:26:28.190Z,5.89
2023-01-04T09:28:56.679Z,5.99
2023-01-04T09:31:28.912Z,6.03
2023-01-04T09:34:15.977Z,6.12
2023-01-04T09:36:48.618Z,6.19
2023-01-04T09:39:24.435Z,6.21
2023-01-04T09:42:03.671Z,6.30
2023-01-04T09:47:50.291Z,6.38
2023-01-04T09:50:43.197Z,6.49
2023-01-04T09:53:22.801Z,6.63
2023-01-04T09:55:52.695Z,6.70
2023-01-04T09:58:27.088Z,6.78
2023-01-04T10:01:04.182Z,6.75
2023-01-04T10:03:38.831Z,6.89
2023-01-04T10:06:15.493Z,6.97
2023-01-04T10:08:44.239Z,7.02
2023-01-04T10:11:36.801Z,7.07
2023-01-04T10:14:11.877Z,7.07
2023-01-04T10:17:16.126Z,7.18
2023-01-04T10:22:49.018Z,7.39
2023-01-04T10:25:27.650Z,7.44
2023-01-04T10:28:23.327Z,7.45
2023-01-04T10:31:39.878Z,7.58
2023-01-04T10:34:28.115Z,7.55
2023-01-04T10:37:10.451Z,7.59
2023-01-04T10:39:37.940Z,7.62
2023-01-04T10:42:14.139Z,7.65
2023-01-04T10:45:08.486Z,7.66
2023-01-04T10:48:12.817Z,7.74
2023-01-04T10:50:51.704Z,7.80
2023-01-04T10:53:27.296Z,7.85
2023-01-04T10:56:27.115Z,7.90
2023-01-04T10:59:21.908Z,8.02
2023-01-04T11:02:01.585Z,8.10
2023-01-04T11:04:35.439Z,8.25
2023-01-04T11:07:19.506Z,8.31
2023-01-04T11:10:13.258Z,8.50
2023-01-04T11:12:40.264Z,8.53
2023-01-04T11:15:08.452Z,8.68
2023-01-04T11:17:36.091Z,8.61
2023-01-04T11:20:03.668Z,8.67
2023-01-04T11:22:54.069Z,8.61
2023-01-04T11:25:38.767Z,8.76
2023-01-04T11:28:31.469Z,8.81
2023-01-04T11:31:44.832Z,8.87
2023-01-04T11:34:12.046Z,8.90
2023-01-04T11:36:45.580Z,8.84
2023-01-04T11:39:23.602Z,8.77
2023-01-04T11:42:06.029Z,8.72
2023-01-04T11:44:35.664Z,8.68
2023-01-04T11:47:26.718Z,8.64
2023-01-04T11:49:56.204Z,8.69
2023-01-04T11:52:34.851Z,8.68
2023-01-04T11:55:17.604Z,8.67
2023-01-04T11:57:44.645Z,8.71
2023-01-04T12:00:16.301Z,8.73
2023-01-04T12:03:00.769Z,8.76
2023-01-04T12:05:30.849Z,8.79
2023-01-04T12:07:59.326Z,8.86
2023-01-04T12:10:28.079Z,8.88
2023-01-04T12:12:56.892Z,8.93
2023-01-04T12:15:33.221Z,8.94
2023-01-04T12:18:04.619Z,8.88
2023-01-04T12:20:31.680Z,8.92
2023-01-04T12:22:59.075Z,8.91
2023-01-04T12:25:38.667Z,8.92
2023-01-04T12:28:06.353Z,8.93
2023-01-04T12:30:41.931Z,8.90
2023-01-04T12:33:34.379Z,8.84
2023-01-04T12:36:11.845Z,8.81
2023-01-04T12:38:58.014Z,8.88
2023-01-04T12:42:03.816Z,8.86
2023-01-04T12:44:36.732Z,8.91
2023-01-04T12:47:48.185Z,8.90
2023-01-04T12:50:26.384Z,8.85
2023-01-04T12:53:29.308Z,8.88
2023-01-04T12:55:54.231Z,8.92
2023-01-04T13:01:28.727Z,8.96
2023-01-04T13:04:39.127Z,9.02
2023-01-04T13:07:16.532Z,9.12
2023-01-04T13:09:53.622Z,9.12
2023-01-04T13:12:45.348Z,9.17
2023-01-04T13:15:46.253Z,9.24
2023-01-04T13:18:25.347Z,9.34
2023-01-04T13:20:52.753Z,9.36
2023-01-04T13:23:20.287Z,9.38
2023-01-04T13:25:47.622Z,9.48
2023-01-04T13:28:18.838Z,9.49
2023-01-04T13:30:47.011Z,9.50
2023-01-04T13:33:27.178Z,9.52
2023-01-04T13:36:09.769Z,9.52
2023-01-04T13:38:39.712Z,9.52
2023-01-04T13:41:21.414Z,9.59
2023-01-04T13:44:08.845Z,9.60
2023-01-04T13:46:36.244Z,9.61
2023-01-04T13:49:03.798Z,9.61
2023-01-04T13:51:37.806Z,9.62
2023-01-04T13:54:16.387Z,9.64
2023-01-04T13:56:46.099Z,9.65
2023-01-04T13:59:15.619Z,9.69
2023-01-04T14:01:48.249Z,9.68
2023-01-04T14:04:22.774Z,9.67
2023-01-04T14:06:51.735Z,9.69
2023-01-04T14:09:25.171Z,9.72
2023-01-04T14:12:07.835Z,9.75
2023-01-04T14:14:37.770Z,9.77
2023-01-04T14:17:12.268Z,9.74
2023-01-04T14:19:51.223Z,9.78
2023-01-04T14:22:24.816Z,9.73
2023-01-04T14:27:42.890Z,9.79
2023-01-04T14:30:18.758Z,9.79
2023-01-04T14:33:04.495Z,9.86
2023-01-04T14:35:31.898Z,9.85
2023-01-04T14:38:17.999Z,9.86
2023-01-04T14:40:45.756Z,9.89
2023-01-04T14:43:37.590Z,9.91
2023-01-04T14:46:04.651Z,9.96
2023-01-04T14:48:31.858Z,9.95
2023-01-04T14:51:00.354Z,9.96
2023-01-04T14:53:27.905Z,10.01
2023-01-04T14:55:55.217Z,10.02
2023-01-04T14:58:22.498Z,10.01
2023-01-04T15:00:49.579Z,10.02
2023-01-04T15:03:17.020Z,10.07
2023-01-04T15:05:46.743Z,9.99
2023-01-04T15:08:13.880Z,9.98
2023-01-04T15:10:40.916Z,9.98
2023-01-04T15:13:08.037Z,10.05
2023-01-04T15:15:36.352Z,10.04
2023-01-04T15:18:03.450Z,10.02
2023-01-04T15:20:30.487Z,10.08
2023-01-04T15:22:57.476Z,10.13
2023-01-04T15:25:25.228Z,10.07
2023-01-04T15:27:52.238Z,10.04
2023-01-04T15:30:19.276Z,10.08
2023-01-04T15:32:46.227Z,10.10
2023-01-04T15:35:16.958Z,10.02
2023-01-04T15:37:44.865Z,10.07
2023-01-04T15:40:15.286Z,10.06
2023-01-04T15:43:00.466Z,10.01
2023-01-04T15:45:35.524Z,10.02
2023-01-04T15:48:08.168Z,10.04
2023-01-04T15:50:38.102Z,10.08
2023-01-04T15:53:06.760Z,10.19
2023-01-04T15:55:37.143Z,10.10
2023-01-04T15:58:05.875Z,10.08
2023-01-04T16:00:32.982Z,10.04
2023-01-04T16:03:00.132Z,10.11
2023-01-04T16:05:27.126Z,10.11
2023-01-04T16:07:54.123Z,10.05
2023-01-04T16:10:21.234Z,10.04
2023-01-04T16:12:54.724Z,10.03
2023-01-04T16:15:24.182Z,10.02
2023-01-04T16:17:51.323Z,10.09
2023-01-04T16:20:19.016Z,10.02
2023-01-04T16:22:46.020Z,10.05
2023-01-04T16:25:14.100Z,10.06
2023-01-04T16:27:41.397Z,10.01
2023-01-04T16:30:13.605Z,9.98
2023-01-04T16:32:45.418Z,9.99
2023-01-04T16:35:12.682Z,10.00
2023-01-04T16:37:39.786Z,9.99
2023-01-04T16:40:08.829Z,9.96
2023-01-04T16:42:37.588Z,10.06
2023-01-04T16:45:05.739Z,10.07
2023-01-04T16:47:43.893Z,10.07
2023-01-04T16:50:12.647Z,10.06
2023-01-04T16:52:40.414Z,10.08
2023-01-04T16:55:08.268Z,10.12
2023-01-04T16:57:35.234Z,10.15
2023-01-04T17:00:02.550Z,10.13
2023-01-04T17:02:29.652Z,10.19
2023-01-04T17:04:59.719Z,10.18
2023-01-04T17:07:32.324Z,10.18
2023-01-04T17:10:01.931Z,10.14
2023-01-04T17:12:46.941Z,10.25
2023-01-04T17:18:02.964Z,10.21
2023-01-04T17:20:29.939Z,10.18
2023-01-04T17:22:56.877Z,10.21
2023-01-04T17:25:23.821Z,10.24
2023-01-04T17:27:50.851Z,10.26
2023-01-04T17:30:17.892Z,10.30
2023-01-04T17:32:44.916Z,10.32
2023-01-04T17:35:11.869Z,10.34
2023-01-04T17:37:38.864Z,10.34
2023-01-04T17:40:06.792Z,10.31
2023-01-04T17:42:34.047Z,10.31
2023-01-04T17:45:01.413Z,10.36
2023-01-04T17:47:28.795Z,10.31
2023-01-04T17:49:55.761Z,10.25
2023-01-04T17:52:30.700Z,10.25
2023-01-04T17:54:58.186Z,10.36
2023-01-04T17:57:25.599Z,10.33
2023-01-04T17:59:52.501Z,10.32
2023-01-04T18:02:19.542Z,10.38
2023-01-04T18:04:46.586Z,10.38
2023-01-04T18:07:13.735Z,10.36
2023-01-04T18:09:40.833Z,10.36
2023-01-04T18:12:07.845Z,10.34
2023-01-04T18:14:34.810Z,10.39
2023-01-04T18:17:01.827Z,10.39
2023-01-04T18:19:30.462Z,10.35
2023-01-04T18:21:58.473Z,10.37
2023-01-04T18:24:37.818Z,10.32
2023-01-04T18:27:25.269Z,10.31
2023-01-04T18:29:55.301Z,10.31
2023-01-04T18:32:23.932Z,10.28
2023-01-04T18:34:51.372Z,10.31
2023-01-04T18:37:19.298Z,10.27
2023-01-04T18:39:47.904Z,10.30
2023-01-04T18:42:15.045Z,10.29
2023-01-04T18:44:47.828Z,10.27
2023-01-04T18:47:21.007Z,10.28
2023-01-04T18:49:51.106Z,10.23
2023-01-04T18:52:19.803Z,10.21
2023-01-04T18:54:48.666Z,10.15
2023-01-04T18:57:15.898Z,10.17
2023-01-04T18:59:42.897Z,10.16
2023-01-04T19:02:17.570Z,10.06
2023-01-04T19:04:45.008Z,10.07
2023-01-04T19:07:12.025Z,10.06
2023-01-04T19:09:39.549Z,10.07
2023-01-04T19:12:06.552Z,10.07
2023-01-04T19:14:33.519Z,10.07
2023-01-04T19:17:00.547Z,10.05
2023-01-04T19:19:27.551Z,10.08
2023-01-04T19:21:54.553Z,10.09
2023-01-04T19:24:21.561Z,10.05
2023-01-04T19:26:48.574Z,10.08
2023-01-04T19:29:15.555Z,10.05
2023-01-04T19:31:42.507Z,10.08
2023-01-04T19:34:10.157Z,10.11
2023-01-04T19:36:37.295Z,10.09
2023-01-04T19:39:07.799Z,10.12
2023-01-04T19:41:36.258Z,10.14
2023-01-04T19:44:06.608Z,10.13
2023-01-04T19:46:34.078Z,10.15
2023-01-04T19:49:01.109Z,10.15
2023-01-04T19:51:28.174Z,10.17
2023-01-04T19:53:55.451Z,10.12
2023-01-04T19:56:22.492Z,10.13
2023-01-04T19:58:49.642Z,10.18
2023-01-04T20:01:19.587Z,10.17
2023-01-04T20:03:47.314Z,10.19
2023-01-04T20:06:15.869Z,10.15
2023-01-04T20:08:43.783Z,10.17
2023-01-04T20:11:11.890Z,10.18
2023-01-04T20:13:39.469Z,10.16
2023-01-04T20:16:07.665Z,10.15
2023-01-04T20:18:36.781Z,10.14
2023-01-04T20:21:14.528Z,10.17
2023-01-04T20:23:41.684Z,10.12
2023-01-04T20:26:14.171Z,10.06
2023-01-04T20:28:43.953Z,10.05
2023-01-04T20:31:15.536Z,10.08
2023-01-04T20:33:42.867Z,10.06
2023-01-04T20:36:22.130Z,10.02
2023-01-04T20:38:49.763Z,10.09
2023-01-04T20:41:22.855Z,10.10
2023-01-04T20:43:50.966Z,10.09
2023-01-04T20:46:24.254Z,10.07
2023-01-04T20:48:51.388Z,10.04
2023-01-04T20:51:25.106Z,10.03
2023-01-04T20:53:53.831Z,10.05
2023-01-04T20:56:25.191Z,10.02
2023-01-04T20:58:53.110Z,10.04
2023-01-04T21:01:21.960Z,10.03
2023-01-04T21:03:49.711Z,10.06
2023-01-04T21:06:19.196Z,10.10
2023-01-04T21:08:47.108Z,10.08
2023-01-04T21:11:14.656Z,10.08
2023-01-04T21:13:42.353Z,10.12
2023-01-04T21:16:11.224Z,10.19
2023-01-04T21:18:38.537Z,10.16
2023-01-04T21:21:12.632Z,10.15
2023-01-04T21:23:43.162Z,10.16
2023-01-04T21:26:15.136Z,10.08
2023-01-04T21:28:42.382Z,10.06
2023-01-04T21:31:18.992Z,10.08
2023-01-04T21:33:46.884Z,10.08
2023-01-04T21:36:18.143Z,10.05
2023-01-04T21:38:51.590Z,10.05
2023-01-04T21:41:19.226Z,10.08
2023-01-04T21:43:46.187Z,10.08
2023-01-04T21:46:15.245Z,10.04
2023-01-04T21:48:43.803Z,10.01
2023-01-04T21:51:12.086Z,10.01
2023-01-04T21:53:40.379Z,9.95
2023-01-04T21:56:09.434Z,9.93
2023-01-04T21:58:36.986Z,9.98
2023-01-04T22:01:16.492Z,9.88
2023-01-04T22:03:45.755Z,9.93
2023-01-04T22:06:14.095Z,9.93
2023-01-04T22:08:46.505Z,9.96
2023-01-04T22:11:15.686Z,9.96
2023-01-04T22:13:43.419Z,9.99
2023-01-04T22:16:15.031Z,9.99
2023-01-04T22:18:49.278Z,9.95
2023-01-04T22:21:20.080Z,9.98
2023-01-04T22:23:47.146Z,10.02
2023-01-04T22:26:14.102Z,10.03
2023-01-04T22:28:41.202Z,10.03
2023-01-04T22:31:11.371Z,10.03
2023-01-04T22:33:39.246Z,10.08
2023-01-04T22:36:12.477Z,10.08
2023-01-04T22:38:42.802Z,10.13
2023-01-04T22:41:16.026Z,10.13
2023-01-04T22:43:44.010Z,10.11
2023-01-04T22:46:17.925Z,10.13
2023-01-04T22:48:45.719Z,10.13
2023-01-04T22:51:16.088Z,10.12
2023-01-04T22:53:43.336Z,10.17
2023-01-04T22:56:20.792Z,10.18
2023-01-04T22:58:54.939Z,10.20
2023-01-04T23:01:24.805Z,10.20
2023-01-04T23:03:52.312Z,10.20
2023-01-04T23:06:20.161Z,10.22
2023-01-04T23:08:47.178Z,10.25
2023-01-04T23:11:18.300Z,10.28
2023-01-04T23:13:45.957Z,10.26
2023-01-04T23:16:16.532Z,10.23
2023-01-04T23:18:44.144Z,10.22
2023-01-04T23:21:11.813Z,10.23
2023-01-04T23:23:39.216Z,10.20
2023-01-04T23:26:11.064Z,10.23
2023-01-04T23:28:38.060Z,10.26
2023-01-04T23:31:08.100Z,10.26
2023-01-04T23:33:36.677Z,10.27
2023-01-04T23:36:11.137Z,10.28
2023-01-04T23:38:39.784Z,10.27
2023-01-04T23:41:07.668Z,10.28
2023-01-04T23:43:36.989Z,10.28
2023-01-04T23:46:16.496Z,10.30
2023-01-04T23:48:44.552Z,10.30
2023-01-04T23:51:15.148Z,10.30
2023-01-04T23:53:42.550Z,10.25
2023-01-04T23:56:15.844Z,10.08
2023-01-04T23:58:43.012Z,10.09
